TimeMST,TemperatureF,Dew PointF,Humidity,Sea Level PressureIn,VisibilityMPH,Wind Direction,Wind SpeedMPH,Gust SpeedMPH,PrecipitationIn,Events,Conditions,WindDirDegrees,DateUTC
12:53 AM,5.0,-0.0,80,30.43,10.0,ENE,9.2,-,N/A,,Clear,60,2013-01-03 07:53:00
1:53 AM,3.9,-0.0,84,30.44,10.0,NE,6.9,-,N/A,,Clear,40,2013-01-03 08:53:00
2:53 AM,3.0,-0.9,84,30.47,10.0,ENE,4.6,-,N/A,,Clear,70,2013-01-03 09:53:00
3:53 AM,-0.9,-5.1,83,30.51,10.0,ENE,8.1,-,N/A,,Clear,70,2013-01-03 10:53:00
4:53 AM,-0.0,-4.0,83,30.52,10.0,NE,4.6,-,N/A,,Clear,50,2013-01-03 11:53:00
5:53 AM,-0.9,-5.1,83,30.53,10.0,NE,6.9,-,N/A,,Clear,40,2013-01-03 12:53:00
6:53 AM,-0.0,-4.0,83,30.55,10.0,ENE,6.9,-,N/A,,Clear,60,2013-01-03 13:53:00
7:53 AM,-0.0,-5.1,79,30.58,10.0,NE,6.9,-,N/A,,Clear,50,2013-01-03 14:53:00
8:53 AM,3.0,-2.9,76,30.59,10.0,ENE,5.8,-,N/A,,Clear,60,2013-01-03 15:53:00
9:53 AM,9.0,1.9,73,30.58,10.0,ENE,6.9,-,N/A,,Clear,60,2013-01-03 16:53:00
10:53 AM,16.0,6.1,65,30.54,10.0,ENE,3.5,-,N/A,,Clear,60,2013-01-03 17:53:00
11:53 AM,19.0,8.1,62,30.49,10.0,East,3.5,-,N/A,,Clear,80,2013-01-03 18:53:00
12:53 PM,21.0,7.0,55,30.44,10.0,South,5.8,-,N/A,,Clear,170,2013-01-03 19:53:00
1:53 PM,21.9,8.1,55,30.42,10.0,South,3.5,-,N/A,,Clear,180,2013-01-03 20:53:00
2:53 PM,21.9,9.0,58,30.41,10.0,Calm,Calm,-,N/A,,Clear,0,2013-01-03 21:53:00
3:53 PM,21.9,9.0,58,30.43,10.0,WSW,3.5,-,N/A,,Clear,240,2013-01-03 22:53:00
4:53 PM,19.0,8.1,62,30.45,10.0,West,3.5,-,N/A,,Clear,260,2013-01-03 23:53:00
5:53 PM,12.0,5.0,73,30.50,10.0,NNW,6.9,-,N/A,,Clear,340,2013-01-04 00:53:00
6:53 PM,10.0,3.9,76,30.51,10.0,North,6.9,-,N/A,,Clear,350,2013-01-04 01:53:00
7:53 PM,7.0,1.9,80,30.52,10.0,ENE,6.9,-,N/A,,Clear,70,2013-01-04 02:53:00
8:53 PM,5.0,1.0,84,30.51,10.0,NE,5.8,-,N/A,,Clear,50,2013-01-04 03:53:00
9:53 PM,3.0,-2.0,80,30.51,10.0,ENE,6.9,-,N/A,,Clear,60,2013-01-04 04:53:00
10:53 PM,1.9,-2.0,83,30.48,10.0,East,4.6,-,N/A,,Clear,80,2013-01-04 05:53:00
11:53 PM,-0.0,-4.0,83,30.45,10.0,NE,5.8,-,N/A,,Clear,50,2013-01-04 06:53:00